Riva Wind — V7HB7 — position and weather

sailwx.info

Track history (hours):
 
Tides and Currents Weather Stations Pressure Air Temp Water Temp Dewpoint Dewpoint Depression Visibility Wind Speed Wind Dir Waves Ship Positions

Riva Wind

Last reported at 2017-Oct-22 21:12 UTC. Time now 2017-Nov-17 17:57 UTC.
Position N 37°25' E 025°55'.
Warning: this ship's position is 25 days out of date.

Length 190 m; draft 12.7 m.

Type: Cargo ship. MMSI: 538002206.

Date/timePositionNaut miles runAvg speedWind from/ knotsBaromVisibWave heightAir tempDewpointWater temp
2017-Oct-22 21:12N 37°25' E 025°55'211.9
2017-Oct-22 21:00N 37°27' E 025°54'611.2
2017-Oct-22 20:30N 37°33' E 025°53'121 3.3
2017-Oct-21 08:26N 39°33' E 025°48'810.8
2017-Oct-21 07:43N 39°41' E 025°50'310.8
2017-Oct-21 07:26N 39°44' E 025°51'511.0
2017-Oct-21 07:00N 39°49' E 025°51'611.5
2017-Oct-21 06:30N 39°54' E 025°54'510.9
2017-Oct-21 06:00N 39°59' E 025°57'5 9.7
2017-Oct-21 05:28N 40°01' E 026°03'610.6
2017-Oct-21 04:54N 40°02' E 026°11'3510.0
2017-Oct-21 01:22N 40°26' E 026°45'410.2
2017-Oct-21 01:00N 40°28' E 026°49'510.1
2017-Oct-21 00:29N 40°30' E 026°55'510.3
2017-Oct-20 23:58N 40°32' E 027°01'89 3.8
2017-Oct-20 00:41N 40°58' E 028°55'0 0.0
2017-Oct-20 00:29N 40°58' E 028°55'0 0.0
2017-Oct-19 23:59N 40°58' E 028°55'0 0.0
2017-Oct-19 18:38N 40°58' E 028°54'0 0.0
2017-Oct-19 18:23N 40°58' E 028°54'18 2.7
2017-Oct-19 11:45N 41°13' E 029°07'2 8.3
2017-Oct-19 11:30N 41°15' E 029°08'6 8.9
2017-Oct-19 10:52N 41°19' E 029°03'3 1.2
2017-Oct-19 08:35N 41°22' E 029°02'0 0.5
2017-Oct-19 08:26N 41°22' E 029°02'0 0.5
2017-Oct-19 07:59N 41°22' E 029°02'0 0.4
2017-Oct-19 07:20N 41°22' E 029°02'0 0.4
2017-Oct-19 06:56N 41°22' E 029°02'0 0.4
2017-Oct-19 06:20N 41°22' E 029°03'0 0.5
2017-Oct-19 05:56N 41°23' E 029°03'0 0.5
2017-Oct-19 05:20N 41°23' E 029°03'0 0.4
2017-Oct-19 04:59N 41°23' E 029°03'0 0.4
2017-Oct-19 04:29N 41°23' E 029°04'0 0.4
2017-Oct-19 03:59N 41°23' E 029°04'0 0.4
2017-Oct-19 03:29N 41°23' E 029°04'0 0.4
2017-Oct-19 02:59N 41°23' E 029°04'0 0.4
2017-Oct-19 02:23N 41°23' E 029°04'0 0.4
2017-Oct-19 01:59N 41°24' E 029°05'0 0.4
2017-Oct-19 01:29N 41°24' E 029°05'0 0.4
2017-Oct-19 00:56N 41°24' E 029°05'0 0.3
2017-Oct-19 00:29N 41°24' E 029°05'3 3.9
2017-Oct-18 23:36N 41°27' E 029°08'110.7
2017-Oct-18 23:30N 41°27' E 029°09'510.5
2017-Oct-18 23:00N 41°31' E 029°14'510.5
2017-Oct-18 22:30N 41°36' E 029°16'510.8
2017-Oct-18 22:00N 41°41' E 029°19'611.0
2017-Oct-18 21:30N 41°46' E 029°21'611.1
2017-Oct-18 21:00N 41°52' E 029°23'611.1
2017-Oct-18 20:30N 41°57' E 029°25'510.9
2017-Oct-18 20:00N 42°02' E 029°28'611.0
2017-Oct-18 19:30N 42°07' E 029°30'510.9
2017-Oct-18 19:01N 42°13' E 029°33'510.8
2017-Oct-18 18:30N 42°18' E 029°35'510.8
2017-Oct-18 18:00N 42°23' E 029°38'510.9
2017-Oct-18 17:30N 42°28' E 029°40'510.8
2017-Oct-18 17:00N 42°33' E 029°42'510.8
2017-Oct-18 16:30N 42°38' E 029°44'510.8
2017-Oct-18 16:00N 42°43' E 029°46'510.9
2017-Oct-18 15:30N 42°48' E 029°49'510.9
2017-Oct-18 15:01N 42°54' E 029°51'1110.8
2017-Oct-18 14:00N 43°04' E 029°57'510.8
2017-Oct-18 13:30N 43°09' E 029°59'611.0
2017-Oct-18 13:00N 43°14' E 030°02'611.2
2017-Oct-18 12:31N 43°19' E 030°04'611.4
2017-Oct-18 12:00N 43°24' E 030°07'611.4
2017-Oct-18 11:30N 43°30' E 030°09'611.4
2017-Oct-18 11:00N 43°35' E 030°11'611.4
2017-Oct-18 10:30N 43°41' E 030°14'611.5
2017-Oct-18 09:59N 43°46' E 030°17'1911.5
2017-Oct-18 08:18N 44°05' E 030°26'1411.4
2017-Oct-18 07:06N 44°18' E 030°32'11710.2
2017-Oct-17 19:34N 46°14' E 030°56'110.1
2017-Oct-17 19:30N 46°14' E 030°55'5 9.5
2017-Oct-17 19:00N 46°19' E 030°55'510.4
2017-Oct-17 18:30N 46°24' E 030°55'510.2
2017-Oct-17 18:00N 46°29' E 030°55'4 7.8
2017-Oct-17 17:30N 46°33' E 030°58'  
2017-Oct-14 00:17N 46°34' E 031°01'  
Track history (hours):
 
Tides and Currents Weather Stations Pressure Air Temp Water Temp Dewpoint Dewpoint Depression Visibility Wind Speed Wind Dir Waves Ship Positions

Riva Wind

Last reported at 2017-Oct-22 21:12 UTC. Time now 2017-Nov-17 17:57 UTC.
Position N 37°25' E 025°55'.
Warning: this ship's position is 25 days out of date.

Length 190 m; draft 12.7 m.

Type: Cargo ship. MMSI: 538002206.

Date/timePositionNaut miles runAvg speedWind from/ knotsBaromVisibWave heightAir tempDewpointWater temp
2017-Oct-22 21:12N 37°25' E 025°55'211.9
2017-Oct-22 21:00N 37°27' E 025°54'611.2
2017-Oct-22 20:30N 37°33' E 025°53'121 3.3
2017-Oct-21 08:26N 39°33' E 025°48'810.8
2017-Oct-21 07:43N 39°41' E 025°50'310.8
2017-Oct-21 07:26N 39°44' E 025°51'511.0
2017-Oct-21 07:00N 39°49' E 025°51'611.5
2017-Oct-21 06:30N 39°54' E 025°54'510.9
2017-Oct-21 06:00N 39°59' E 025°57'5 9.7
2017-Oct-21 05:28N 40°01' E 026°03'610.6
2017-Oct-21 04:54N 40°02' E 026°11'3510.0
2017-Oct-21 01:22N 40°26' E 026°45'410.2
2017-Oct-21 01:00N 40°28' E 026°49'510.1
2017-Oct-21 00:29N 40°30' E 026°55'510.3
2017-Oct-20 23:58N 40°32' E 027°01'89 3.8
2017-Oct-20 00:41N 40°58' E 028°55'0 0.0
2017-Oct-20 00:29N 40°58' E 028°55'0 0.0
2017-Oct-19 23:59N 40°58' E 028°55'0 0.0
2017-Oct-19 18:38N 40°58' E 028°54'0 0.0
2017-Oct-19 18:23N 40°58' E 028°54'18 2.7
2017-Oct-19 11:45N 41°13' E 029°07'2 8.3
2017-Oct-19 11:30N 41°15' E 029°08'6 8.9
2017-Oct-19 10:52N 41°19' E 029°03'3 1.2
2017-Oct-19 08:35N 41°22' E 029°02'0 0.5
2017-Oct-19 08:26N 41°22' E 029°02'0 0.5
2017-Oct-19 07:59N 41°22' E 029°02'0 0.4
2017-Oct-19 07:20N 41°22' E 029°02'0 0.4
2017-Oct-19 06:56N 41°22' E 029°02'0 0.4
2017-Oct-19 06:20N 41°22' E 029°03'0 0.5
2017-Oct-19 05:56N 41°23' E 029°03'0 0.5
2017-Oct-19 05:20N 41°23' E 029°03'0 0.4
2017-Oct-19 04:59N 41°23' E 029°03'0 0.4
2017-Oct-19 04:29N 41°23' E 029°04'0 0.4
2017-Oct-19 03:59N 41°23' E 029°04'0 0.4
2017-Oct-19 03:29N 41°23' E 029°04'0 0.4
2017-Oct-19 02:59N 41°23' E 029°04'0 0.4
2017-Oct-19 02:23N 41°23' E 029°04'0 0.4
2017-Oct-19 01:59N 41°24' E 029°05'0 0.4
2017-Oct-19 01:29N 41°24' E 029°05'0 0.4
2017-Oct-19 00:56N 41°24' E 029°05'0 0.3
2017-Oct-19 00:29N 41°24' E 029°05'3 3.9
2017-Oct-18 23:36N 41°27' E 029°08'110.7
2017-Oct-18 23:30N 41°27' E 029°09'510.5
2017-Oct-18 23:00N 41°31' E 029°14'510.5
2017-Oct-18 22:30N 41°36' E 029°16'510.8
2017-Oct-18 22:00N 41°41' E 029°19'611.0
2017-Oct-18 21:30N 41°46' E 029°21'611.1
2017-Oct-18 21:00N 41°52' E 029°23'611.1
2017-Oct-18 20:30N 41°57' E 029°25'510.9
2017-Oct-18 20:00N 42°02' E 029°28'611.0
2017-Oct-18 19:30N 42°07' E 029°30'510.9
2017-Oct-18 19:01N 42°13' E 029°33'510.8
2017-Oct-18 18:30N 42°18' E 029°35'510.8
2017-Oct-18 18:00N 42°23' E 029°38'510.9
2017-Oct-18 17:30N 42°28' E 029°40'510.8
2017-Oct-18 17:00N 42°33' E 029°42'510.8
2017-Oct-18 16:30N 42°38' E 029°44'510.8
2017-Oct-18 16:00N 42°43' E 029°46'510.9
2017-Oct-18 15:30N 42°48' E 029°49'510.9
2017-Oct-18 15:01N 42°54' E 029°51'1110.8
2017-Oct-18 14:00N 43°04' E 029°57'510.8
2017-Oct-18 13:30N 43°09' E 029°59'611.0
2017-Oct-18 13:00N 43°14' E 030°02'611.2
2017-Oct-18 12:31N 43°19' E 030°04'611.4
2017-Oct-18 12:00N 43°24' E 030°07'611.4
2017-Oct-18 11:30N 43°30' E 030°09'611.4
2017-Oct-18 11:00N 43°35' E 030°11'611.4
2017-Oct-18 10:30N 43°41' E 030°14'611.5
2017-Oct-18 09:59N 43°46' E 030°17'1911.5
2017-Oct-18 08:18N 44°05' E 030°26'1411.4
2017-Oct-18 07:06N 44°18' E 030°32'11710.2
2017-Oct-17 19:34N 46°14' E 030°56'110.1
2017-Oct-17 19:30N 46°14' E 030°55'5 9.5
2017-Oct-17 19:00N 46°19' E 030°55'510.4
2017-Oct-17 18:30N 46°24' E 030°55'510.2
2017-Oct-17 18:00N 46°29' E 030°55'4 7.8
2017-Oct-17 17:30N 46°33' E 030°58'  
2017-Oct-14 00:17N 46°34' E 031°01'  

Dump ship's entire track history